createdAt,value
2018-12-11T00:00:05.324Z,28.4
2018-12-11T00:00:55.104Z,28.4
2018-12-11T00:01:46.017Z,28.2
2018-12-11T00:02:34.757Z,27.7
2018-12-11T00:03:27.465Z,27.4
2018-12-11T00:04:16.469Z,27.3
2018-12-11T00:05:06.279Z,27.1
2018-12-11T00:05:55.804Z,27
2018-12-11T00:06:46.327Z,26.9
2018-12-11T00:25:17.503Z,27.1
2018-12-11T00:25:52.423Z,27.1
2018-12-11T00:26:56.177Z,27.3
2018-12-11T00:29:17.710Z,27.9
2018-12-11T00:30:09.567Z,28
2018-12-11T00:31:12.990Z,28.1
2018-12-11T04:54:16.358Z,26.8
2018-12-11T04:55:04.613Z,27.2
2018-12-11T04:55:54.087Z,27.1
2018-12-11T04:56:43.796Z,27
2018-12-11T04:57:34.747Z,26.7
2018-12-11T04:58:24.763Z,26.6
2018-12-11T04:59:14.068Z,26.4
2018-12-11T05:00:04.351Z,26.4
2018-12-11T05:00:54.632Z,26.7
2018-12-11T05:01:44.428Z,26.9
2018-12-11T05:02:33.375Z,27.1
2018-12-11T05:04:14.704Z,27.3
2018-12-11T05:05:04.452Z,26.9
2018-12-11T05:05:54.437Z,26.6
2018-12-11T05:06:44.275Z,26.4
2018-12-11T05:07:33.890Z,26.5
2018-12-11T05:08:24.943Z,26.7
2018-12-11T05:09:14.082Z,26.9
2018-12-11T05:10:05.259Z,27.1
2018-12-11T05:10:55.641Z,27.3
2018-12-11T05:11:45.646Z,27.4
2018-12-11T05:12:34.876Z,27.6
2018-12-11T05:13:25.522Z,27.7
2018-12-11T05:15:05.229Z,27.9
2018-12-11T05:15:55.112Z,27.9
2018-12-11T05:16:45.232Z,27.9
2018-12-11T05:17:33.972Z,28
2018-12-11T05:18:27.130Z,28.1
2018-12-11T05:19:15.118Z,28.1
2018-12-11T05:20:05.319Z,28.1
2018-12-11T05:20:55.274Z,28.2
2018-12-11T05:21:46.136Z,28.2
2018-12-11T05:22:34.874Z,28.3
2018-12-11T05:23:25.981Z,28.2
2018-12-11T05:24:15.293Z,27.9
2018-12-11T05:25:05.314Z,27.3
2018-12-11T05:25:55.302Z,27
2018-12-11T05:26:46.301Z,26.8
2018-12-11T05:27:35.755Z,26.6
2018-12-11T05:28:26.020Z,26.5
2018-12-11T05:29:18.793Z,26.3
2018-12-11T05:30:06.305Z,26.2
2018-12-11T05:30:57.462Z,26.4
2018-12-11T05:31:46.233Z,26.9
2018-12-11T05:32:35.805Z,27.4
2018-12-11T05:33:26.181Z,26.7
2018-12-11T05:34:21.662Z,26.4
2018-12-11T05:35:06.763Z,26.3
2018-12-11T05:35:56.979Z,26.3
2018-12-11T05:36:46.640Z,26.4
2018-12-11T05:37:36.881Z,26.7
2018-12-11T05:38:26.380Z,26.9
2018-12-11T05:39:18.846Z,27.1
2018-12-11T05:40:06.770Z,27.3
2018-12-11T05:40:57.390Z,27.4
2018-12-11T05:41:47.423Z,27.5
2018-12-11T05:42:36.167Z,27.6
2018-12-11T05:43:26.475Z,27.8
2018-12-11T05:45:08.524Z,27.9
2018-12-11T05:45:57.452Z,28
2018-12-11T05:46:46.877Z,27.9
2018-12-11T05:47:37.825Z,28
2018-12-11T05:48:28.476Z,28.1
2018-12-11T05:49:17.984Z,28.1
2018-12-11T05:50:07.190Z,28.1
2018-12-11T05:50:57.522Z,28.2
2018-12-11T05:51:47.629Z,28.2
2018-12-11T05:52:37.952Z,28.2
2018-12-11T05:53:28.797Z,28.1
2018-12-11T05:54:17.798Z,27.9
2018-12-11T05:55:07.104Z,27.4
2018-12-11T05:55:57.876Z,27
2018-12-11T05:56:48.566Z,26.8
2018-12-11T05:57:38.386Z,26.6
2018-12-11T05:58:28.588Z,26.5
2018-12-11T05:59:17.343Z,26.3
2018-12-11T06:00:08.372Z,26.1
2018-12-11T06:00:58.526Z,26.3
2018-12-11T06:01:48.046Z,26.6
2018-12-11T06:02:39.166Z,27.3
2018-12-11T06:03:28.740Z,26.9
2018-12-11T06:04:19.316Z,26.5
2018-12-11T06:05:09.181Z,26.3
2018-12-11T06:05:59.921Z,26.2
2018-12-11T06:06:49.599Z,26.3
2018-12-11T06:07:37.249Z,26.6
2018-12-11T06:08:28.225Z,26.8
2018-12-11T06:09:18.278Z,27
2018-12-11T06:10:09.243Z,27.2
2018-12-11T06:10:59.560Z,27.3
2018-12-11T06:11:49.092Z,27.4
2018-12-11T06:12:37.791Z,27.6
2018-12-11T06:13:28.735Z,27.7
2018-12-11T06:14:19.528Z,27.8
2018-12-11T06:15:09.238Z,27.9
2018-12-11T06:15:59.295Z,27.9
2018-12-11T06:16:48.832Z,28
2018-12-11T06:17:39.417Z,28
2018-12-11T06:18:29.662Z,28
2018-12-11T06:19:19.785Z,28.1
2018-12-11T06:20:10.332Z,28.1
2018-12-11T06:20:59.600Z,28.1
2018-12-11T06:21:50.988Z,28.1
2018-12-11T06:22:40.326Z,28.2
2018-12-11T06:23:29.761Z,28.2
2018-12-11T06:24:20.364Z,28.1
2018-12-11T06:25:11.732Z,27.4
2018-12-11T06:26:00.763Z,27.1
2018-12-11T06:26:50.816Z,26.8
2018-12-11T06:27:40.915Z,26.7
2018-12-11T06:28:31.311Z,26.6
2018-12-11T06:29:19.431Z,26.5
2018-12-11T06:30:09.818Z,26.2
2018-12-11T06:31:00.586Z,26.2
2018-12-11T06:31:50.493Z,26.4
2018-12-11T06:32:40.115Z,26.9
2018-12-11T06:33:30.770Z,27.3
2018-12-11T06:34:21.301Z,26.6
2018-12-11T06:35:10.073Z,26.4
2018-12-11T06:36:00.670Z,26.3
2018-12-11T06:36:50.870Z,26.3
2018-12-11T06:37:41.808Z,26.4
2018-12-11T06:38:31.047Z,26.7
2018-12-11T06:39:20.793Z,26.9
2018-12-11T06:40:11.205Z,27.1
2018-12-11T06:41:01.223Z,27.3
2018-12-11T06:41:51.316Z,27.4
2018-12-11T06:42:41.037Z,27.5
2018-12-11T06:43:31.157Z,27.6
2018-12-11T06:44:21.561Z,27.7
2018-12-11T06:46:01.785Z,27.9
2018-12-11T06:46:53.210Z,27.9
2018-12-11T06:47:41.890Z,27.9
2018-12-11T06:48:31.715Z,27.9
2018-12-11T06:49:21.772Z,28
2018-12-11T06:50:10.997Z,28.1
2018-12-11T06:51:01.318Z,28.1
2018-12-11T06:51:52.579Z,28.1
2018-12-11T06:52:42.237Z,28.1
2018-12-11T06:53:32.319Z,28.2
2018-12-11T06:54:22.412Z,28.2
2018-12-11T06:55:11.886Z,28.1
2018-12-11T06:56:01.669Z,27.6
2018-12-11T06:56:53.233Z,27.1
2018-12-11T06:57:41.619Z,26.8
2018-12-11T06:58:32.743Z,26.6
2018-12-11T06:59:22.309Z,26.5
2018-12-11T07:00:12.866Z,26.4
2018-12-11T07:01:02.805Z,26.4
2018-12-11T07:01:53.264Z,26.4
2018-12-11T07:02:43.623Z,26.3
2018-12-11T07:03:32.941Z,26.3
2018-12-11T07:04:23.368Z,26.3
2018-12-11T07:05:13.162Z,26.2
2018-12-11T07:06:03.663Z,26
2018-12-11T07:06:53.643Z,25.7
2018-12-11T07:07:42.801Z,25.5
2018-12-11T07:08:32.907Z,25.3
2018-12-11T07:09:22.909Z,25.3
2018-12-11T07:10:13.821Z,25.1
2018-12-11T07:11:03.900Z,25.1
2018-12-11T07:11:53.226Z,25
2018-12-11T07:12:43.690Z,24.9
2018-12-11T07:13:34.285Z,24.9
2018-12-11T07:14:23.051Z,24.9
2018-12-11T07:15:12.487Z,24.8
2018-12-11T07:16:03.031Z,24.8
2018-12-11T07:16:53.660Z,24.7
2018-12-11T07:17:43.988Z,24.9
2018-12-11T07:18:37.197Z,25.3
2018-12-11T07:19:23.797Z,25.5
2018-12-11T07:20:12.581Z,25.8
2018-12-11T07:21:02.917Z,25.9
2018-12-11T07:21:54.262Z,25.6
2018-12-11T07:22:44.309Z,25.6
2018-12-11T07:23:33.097Z,25.5
2018-12-11T07:24:23.689Z,25.6
2018-12-11T07:25:13.204Z,25.7
2018-12-11T07:26:04.619Z,25.6
2018-12-11T07:26:54.367Z,25.5
2018-12-11T07:27:43.944Z,25.4
2018-12-11T07:28:34.193Z,25.3
2018-12-11T07:29:25.016Z,25.3
2018-12-11T07:30:13.198Z,25.4
2018-12-11T07:31:04.471Z,25.9
2018-12-11T07:31:54.481Z,26.1
2018-12-11T07:32:44.886Z,26.3
2018-12-11T07:33:34.294Z,26.8
2018-12-11T07:34:22.769Z,26.9
2018-12-11T07:35:14.818Z,26.4
2018-12-11T07:36:04.293Z,26
2018-12-11T07:36:54.810Z,25.8
2018-12-11T07:37:44.595Z,25.7
2018-12-11T07:38:35.698Z,25.9
2018-12-11T07:39:25.798Z,26.3
2018-12-11T07:40:14.992Z,26.5
2018-12-11T07:41:04.275Z,26.7
2018-12-11T07:41:55.380Z,26.8
2018-12-11T07:42:45.142Z,27
2018-12-11T07:43:36.332Z,27.1
2018-12-11T07:44:25.716Z,27.3
2018-12-11T07:45:16.114Z,27.4
2018-12-11T07:46:07.850Z,27.5
2018-12-11T07:46:55.487Z,27.6
2018-12-11T07:47:45.569Z,27.7
2018-12-11T07:51:04.959Z,27.9
2018-12-11T07:51:56.332Z,27.9
2018-12-11T07:52:46.689Z,28
2018-12-11T07:53:36.223Z,28.1
2018-12-11T07:54:26.267Z,28.1
2018-12-11T07:55:16.421Z,28.1
2018-12-11T07:56:09.745Z,28.1
2018-12-11T07:56:55.149Z,28.1
2018-12-11T07:57:45.996Z,28.2
2018-12-11T07:58:36.481Z,27.5
2018-12-11T07:59:27.156Z,27
2018-12-11T08:00:16.703Z,26.7
2018-12-11T08:01:07.253Z,26.5
2018-12-11T08:01:55.988Z,26.4
2018-12-11T08:02:46.786Z,26.3
2018-12-11T08:03:36.863Z,26.3
2018-12-11T08:04:26.715Z,26.3
2018-12-11T08:05:16.563Z,26.3
2018-12-11T08:06:06.745Z,26.2
2018-12-11T08:06:57.178Z,26.2
2018-12-11T08:07:46.320Z,26.1
2018-12-11T08:08:38.039Z,25.9
2018-12-11T08:09:26.786Z,25.5
2018-12-11T08:10:17.621Z,25.3
2018-12-11T08:11:07.708Z,25.2
2018-12-11T08:11:56.885Z,25.1
2018-12-11T08:12:46.719Z,25
2018-12-11T08:13:37.405Z,24.9
2018-12-11T08:14:27.695Z,24.9
2018-12-11T08:15:19.287Z,24.8
2018-12-11T08:16:07.520Z,24.8
2018-12-11T08:16:57.012Z,24.7
2018-12-11T08:17:47.653Z,24.6
2018-12-11T08:18:37.176Z,24.6
2018-12-11T08:19:29.010Z,24.8
2018-12-11T08:20:17.703Z,25.2
2018-12-11T08:21:08.470Z,25.4
2018-12-11T08:21:58.692Z,25.7
2018-12-11T08:22:47.912Z,26.6
2018-12-11T08:23:38.597Z,26.1
2018-12-11T08:24:27.730Z,25.6
2018-12-11T08:25:18.992Z,25.4
2018-12-11T08:26:07.964Z,25.4
2018-12-11T08:26:58.025Z,25.6
2018-12-11T08:27:48.118Z,25.8
2018-12-11T08:28:38.491Z,26.1
2018-12-11T08:29:28.101Z,26.4
2018-12-11T08:30:18.659Z,26.6
2018-12-11T08:31:09.017Z,26.8
2018-12-11T08:31:57.993Z,26.9
2018-12-11T08:32:49.428Z,27
2018-12-11T08:33:39.816Z,27.1
2018-12-11T08:34:28.804Z,27.3
2018-12-11T08:35:19.871Z,27.4
2018-12-11T08:36:09.911Z,27.4
2018-12-11T08:36:59.496Z,27.6
2018-12-11T08:37:47.808Z,27.7
2018-12-11T08:38:39.068Z,27.7
2018-12-11T08:39:30.810Z,27.8
2018-12-11T08:40:19.114Z,27.8
2018-12-11T08:42:00.108Z,27.9
2018-12-11T08:42:49.901Z,28
2018-12-11T08:43:39.403Z,28
2018-12-11T08:44:29.412Z,28.1
2018-12-11T08:45:19.523Z,28.1
2018-12-11T08:46:09.636Z,28.1
2018-12-11T08:46:59.386Z,27.9
2018-12-11T08:47:49.439Z,27.3
2018-12-11T08:48:39.946Z,26.8
2018-12-11T08:49:30.132Z,26.6
2018-12-11T08:50:20.006Z,26.4
2018-12-11T08:51:09.385Z,26.4
2018-12-11T08:52:00.898Z,26.3
2018-12-11T08:52:50.065Z,26.3
2018-12-11T09:08:40.205Z,24.6
2018-12-11T09:09:59.265Z,25
2018-12-11T09:10:21.477Z,25.4
2018-12-11T09:11:09.841Z,25.6
2018-12-11T09:12:00.432Z,26.1
2018-12-11T09:13:18.527Z,25.6
2018-12-11T09:13:55.529Z,25.3
2018-12-11T09:14:30.037Z,25.3
2018-12-11T09:15:20.467Z,25.3
2018-12-11T09:16:09.559Z,25.5
2018-12-11T09:17:14.075Z,25.8
2018-12-11T09:18:19.961Z,26.2
2018-12-11T09:18:41.714Z,26.4
2018-12-11T09:19:43.518Z,26.6
2018-12-11T09:20:35.119Z,26.8
2018-12-11T09:21:10.809Z,26.9
2018-12-11T09:22:00.934Z,27
2018-12-11T09:23:04.702Z,27.1
2018-12-11T09:23:56.077Z,27.3
2018-12-11T09:24:31.177Z,27.4
2018-12-11T09:25:49.222Z,27.5
2018-12-11T09:26:24.959Z,27.6
2018-12-11T09:27:00.769Z,27.7
2018-12-11T09:27:50.228Z,27.8
2018-12-11T14:07:31.953Z,20.7
2018-12-11T14:08:22.477Z,20.8
2018-12-11T14:09:11.679Z,20.8
2018-12-11T14:10:02.014Z,20.7
2018-12-11T14:10:51.742Z,20.7
2018-12-11T14:11:41.737Z,20.7
2018-12-11T14:12:32.608Z,20.6
2018-12-11T14:13:22.116Z,20.6
2018-12-11T14:14:12.734Z,20.6
2018-12-11T14:15:02.197Z,20.6
2018-12-11T14:15:51.997Z,20.6
2018-12-11T14:16:42.071Z,20.6
2018-12-11T14:17:32.776Z,20.6
2018-12-11T14:18:23.086Z,20.6
2018-12-11T14:19:13.056Z,20.6
2018-12-11T14:20:02.599Z,20.6
2018-12-11T14:20:52.411Z,20.5
2018-12-11T14:21:42.154Z,20.5
2018-12-11T14:22:33.345Z,20.5
2018-12-11T14:23:23.091Z,20.5
2018-12-11T14:24:13.136Z,20.5
2018-12-11T14:25:03.016Z,20.4
2018-12-11T14:25:52.063Z,20.4
2018-12-11T14:26:42.883Z,20.4
2018-12-11T14:27:30.873Z,20.4
2018-12-11T14:28:22.556Z,20.4
2018-12-11T14:29:12.208Z,20.4
2018-12-11T14:30:01.699Z,20.4
2018-12-11T14:30:51.445Z,20.4
2018-12-11T14:31:42.070Z,20.4
2018-12-11T14:32:32.688Z,20.4
2018-12-11T14:33:23.638Z,20.3
2018-12-11T14:34:13.190Z,20.4
2018-12-11T14:35:02.933Z,20.3
2018-12-11T14:35:52.733Z,20.3
2018-12-11T14:36:42.783Z,20.3
2018-12-11T14:37:34.023Z,20.3
2018-12-11T14:38:22.815Z,20.3
2018-12-11T14:39:13.220Z,20.3
2018-12-11T14:40:02.950Z,20.3
2018-12-11T14:40:53.285Z,20.3
2018-12-11T14:41:43.969Z,20.3
2018-12-11T14:42:34.401Z,20.3
2018-12-11T14:43:23.797Z,20.3
2018-12-11T14:44:13.284Z,20.3
2018-12-11T14:45:04.590Z,20.3
2018-12-11T14:45:54.345Z,20.3
2018-12-11T14:46:43.427Z,20.2
2018-12-11T14:47:33.745Z,20.2
2018-12-11T14:48:25.639Z,20.2
2018-12-11T14:49:14.614Z,20.2
2018-12-11T14:50:04.712Z,20.2
2018-12-11T14:50:55.087Z,20.2
2018-12-11T14:51:44.586Z,20.2
2018-12-11T14:52:34.920Z,20.1
2018-12-11T14:53:24.248Z,20.2
2018-12-11T14:54:15.314Z,20.2
2018-12-11T14:55:05.380Z,20.1
2018-12-11T14:55:54.321Z,20.1
2018-12-11T14:56:43.833Z,20.1
2018-12-11T14:57:41.751Z,20.1
2018-12-11T14:58:24.746Z,20.1
2018-12-11T14:59:14.494Z,20.1
2018-12-11T15:00:05.399Z,20.1
2018-12-11T15:00:55.481Z,20.1
2018-12-11T15:01:46.058Z,20.1
2018-12-11T15:02:37.811Z,20.1
2018-12-11T15:03:25.600Z,20.1
2018-12-11T15:04:15.648Z,20.1
2018-12-11T15:05:04.665Z,20.1
2018-12-11T15:05:56.886Z,20.1
2018-12-11T15:06:46.106Z,20
2018-12-11T15:07:35.623Z,20.1
2018-12-11T15:08:26.202Z,20
2018-12-11T15:09:15.998Z,20
2018-12-11T15:10:06.417Z,20
2018-12-11T15:10:57.233Z,20
2018-12-11T15:11:46.521Z,20
2018-12-11T15:12:36.586Z,20
2018-12-11T15:13:26.351Z,20
2018-12-11T15:15:06.153Z,22.2
2018-12-11T15:15:56.217Z,22.4
2018-12-11T15:16:46.493Z,22.6
2018-12-11T15:17:36.332Z,22.8
2018-12-11T15:18:26.670Z,22.8
2018-12-11T15:19:17.254Z,22.9
2018-12-11T15:20:06.310Z,23.2
2018-12-11T15:20:56.820Z,23.6
2018-12-11T15:21:46.645Z,23.9
2018-12-11T15:22:37.232Z,24.2
2018-12-11T15:23:26.547Z,24.5
2018-12-11T15:24:17.659Z,24.8
2018-12-11T15:25:07.447Z,25.1
2018-12-11T15:25:57.157Z,25.4
2018-12-11T15:26:47.797Z,25.6
2018-12-11T15:27:36.737Z,25.8
2018-12-11T15:28:27.464Z,25.9
2018-12-11T15:29:17.951Z,26.1
2018-12-11T15:30:07.325Z,26.1
2018-12-11T15:30:57.238Z,26.2
2018-12-11T15:31:47.715Z,26.3
2018-12-11T15:32:37.994Z,26.6
2018-12-11T15:33:27.472Z,26.7
2018-12-11T15:34:16.447Z,26.8
2018-12-11T15:35:07.480Z,26.8
2018-12-11T15:35:57.753Z,26.9
2018-12-11T15:36:47.726Z,27
2018-12-11T15:37:37.511Z,27.1
2018-12-11T15:38:28.089Z,27.2
2018-12-11T15:39:17.934Z,27.3
2018-12-11T15:40:07.738Z,27.4
2018-12-11T15:40:57.180Z,27.4
2018-12-11T15:41:47.854Z,27.6
2018-12-11T15:42:38.000Z,27.6
2018-12-11T15:43:27.692Z,27.7
2018-12-11T15:44:18.542Z,27.8
2018-12-11T15:46:04.954Z,27.9
2018-12-11T15:46:49.199Z,28
2018-12-11T15:47:39.009Z,28.1
2018-12-11T15:48:28.985Z,28.1
2018-12-11T15:49:20.537Z,28.1
2018-12-11T15:50:08.711Z,28.3
2018-12-11T15:50:57.852Z,28.3
2018-12-11T15:51:48.974Z,28.4
2018-12-11T15:52:39.067Z,28.4
2018-12-11T15:53:29.899Z,28.5
2018-12-11T15:54:19.729Z,28.5
2018-12-11T15:55:09.501Z,28.6
2018-12-11T15:55:58.410Z,28.6
2018-12-11T15:56:48.539Z,28.7
2018-12-11T15:57:39.693Z,28.8
2018-12-11T15:58:35.288Z,28.8
2018-12-11T15:59:19.284Z,28.8
2018-12-11T16:00:09.636Z,28.9
2018-12-11T16:00:59.693Z,28.9
2018-12-11T16:01:49.456Z,28.9
2018-12-11T16:02:39.766Z,29
2018-12-11T16:03:30.346Z,29
2018-12-11T16:04:19.039Z,29.1
2018-12-11T16:05:09.100Z,29.1
2018-12-11T16:05:59.162Z,29.1
2018-12-11T16:06:50.001Z,29.1
2018-12-11T16:07:40.325Z,29.2
2018-12-11T16:08:30.462Z,29.1
2018-12-11T16:09:20.724Z,29.1
2018-12-11T16:10:10.055Z,29
2018-12-11T16:10:59.532Z,28.9
2018-12-11T16:11:49.793Z,28.9
2018-12-11T16:12:40.405Z,29
2018-12-11T16:13:30.263Z,29.1
2018-12-11T16:14:21.392Z,29.2
2018-12-11T16:15:10.765Z,29.2
2018-12-11T16:16:00.908Z,29.2
2018-12-11T16:16:50.151Z,29.1
2018-12-11T16:17:40.513Z,29.1
2018-12-11T16:18:30.832Z,29.1
2018-12-11T16:19:20.412Z,29.1
2018-12-11T16:20:11.065Z,29.2
2018-12-11T16:21:01.669Z,29.3
2018-12-11T16:21:50.773Z,29.3
2018-12-11T16:22:39.689Z,29.4
2018-12-11T16:23:31.460Z,29.4
2018-12-11T16:24:21.212Z,29.3
2018-12-11T16:25:11.019Z,29.3
2018-12-11T16:26:01.685Z,29.3
2018-12-11T16:26:51.949Z,29.3
2018-12-11T16:27:41.460Z,29.3
2018-12-11T16:28:33.317Z,29.4
2018-12-11T16:29:22.222Z,29.5
2018-12-11T16:30:10.839Z,29.5
2018-12-11T16:31:01.871Z,29.5
2018-12-11T16:31:51.779Z,29.5
2018-12-11T16:32:42.640Z,29.5
2018-12-11T16:33:32.452Z,29.4
2018-12-11T16:34:21.232Z,29.4
2018-12-11T16:35:13.376Z,29.4
2018-12-11T16:36:01.074Z,29.6
2018-12-11T16:36:51.582Z,29.7
2018-12-11T16:37:42.039Z,29.7
2018-12-11T16:38:32.787Z,29.8
2018-12-11T16:39:22.426Z,29.8
2018-12-11T16:40:14.179Z,29.8
2018-12-11T16:41:01.877Z,29.8
2018-12-11T16:41:52.516Z,29.8
2018-12-11T16:42:42.559Z,29.8
2018-12-11T16:43:31.734Z,29.8
2018-12-11T16:44:22.651Z,29.8
2018-12-11T16:45:13.524Z,29.9
2018-12-11T16:46:03.579Z,30
2018-12-11T16:46:53.079Z,30
2018-12-11T16:47:42.921Z,30
2018-12-11T16:48:32.071Z,30
2018-12-11T16:49:23.013Z,30
2018-12-11T16:50:12.488Z,29.9
2018-12-11T16:51:02.100Z,29.9
2018-12-11T16:51:54.141Z,29.9
2018-12-11T16:52:44.105Z,29.9
2018-12-11T16:53:33.546Z,30
2018-12-11T16:54:23.873Z,30.1
2018-12-11T16:55:14.018Z,30.1
2018-12-11T16:56:03.212Z,30.1
2018-12-11T16:56:54.014Z,30.1
2018-12-11T16:57:43.583Z,30
2018-12-11T16:58:33.901Z,30
2018-12-11T16:59:23.398Z,29.9
2018-12-11T17:00:13.466Z,29.9
2018-12-11T17:01:04.357Z,29.9
2018-12-11T17:01:54.428Z,30.1
2018-12-11T17:02:44.480Z,30.2
2018-12-11T17:03:34.228Z,30.3
2018-12-11T17:04:24.298Z,30.3
2018-12-11T17:05:14.355Z,30.4
2018-12-11T17:06:03.720Z,30.4
2018-12-11T17:06:54.269Z,30.4
2018-12-11T17:07:44.710Z,30.5
2018-12-11T17:08:33.003Z,30.6
2018-12-11T17:09:24.167Z,30.6
2018-12-11T17:10:14.238Z,30.7
2018-12-11T17:11:04.968Z,30.7
2018-12-11T17:11:54.885Z,30.8
2018-12-11T17:12:44.925Z,30.8
2018-12-11T17:13:34.730Z,30.8
2018-12-11T17:14:25.033Z,30.8
2018-12-11T17:15:14.816Z,30.9
2018-12-11T17:16:05.085Z,30.9
2018-12-11T17:16:55.782Z,30.9
2018-12-11T17:17:44.675Z,30.9
2018-12-11T17:18:35.626Z,31
2018-12-11T17:19:25.362Z,31
2018-12-11T17:20:15.703Z,31.1
2018-12-11T17:21:05.240Z,31.1
2018-12-11T17:21:57.753Z,31.1
2018-12-11T17:22:45.882Z,31.1
2018-12-11T17:23:35.435Z,31.1
2018-12-11T17:24:23.822Z,31.1
2018-12-11T17:25:15.540Z,31.1
2018-12-11T17:26:05.560Z,31.1
2018-12-11T17:26:57.357Z,31.1
2018-12-11T17:27:45.432Z,31.1
2018-12-11T17:28:36.602Z,31.1
2018-12-11T17:29:31.957Z,31.1
2018-12-11T17:30:15.842Z,31.1
2018-12-11T17:31:06.200Z,31.1
2018-12-11T17:31:56.589Z,31.1
2018-12-11T17:32:46.352Z,31.1
2018-12-11T17:33:36.126Z,31.1
2018-12-11T17:34:25.023Z,31.1
2018-12-11T17:35:16.286Z,31.1
2018-12-11T17:36:05.440Z,31
2018-12-11T17:36:55.759Z,30.9
2018-12-11T17:37:46.371Z,30.9
2018-12-11T17:38:36.472Z,30.9
2018-12-11T17:39:26.450Z,30.9
2018-12-11T17:40:16.514Z,30.9
2018-12-11T17:41:06.901Z,30.8
2018-12-11T17:41:57.249Z,30.8
2018-12-11T17:42:46.881Z,30.9
2018-12-11T17:43:38.679Z,30.9
2018-12-11T17:44:26.807Z,31.1
2018-12-11T17:45:17.426Z,31.1
2018-12-11T17:46:07.749Z,31.1
2018-12-11T17:46:57.024Z,31.1
2018-12-11T17:47:47.862Z,31.2
2018-12-11T17:48:44.381Z,31.3
2018-12-11T17:49:29.344Z,31.3
2018-12-11T17:50:17.218Z,31.3
2018-12-11T17:51:07.064Z,31.4
2018-12-11T17:51:56.824Z,31.4
2018-12-11T17:52:48.558Z,31.4
2018-12-11T17:53:37.224Z,31.4
2018-12-11T17:54:27.838Z,31.4
2018-12-11T17:55:17.631Z,31.4
2018-12-11T17:56:06.562Z,31.4
2018-12-11T17:56:57.199Z,31.4
2018-12-11T17:57:47.292Z,31.4
2018-12-11T17:58:37.674Z,31.4
2018-12-11T17:59:27.690Z,31.4
2018-12-11T18:00:17.195Z,31.4
2018-12-11T18:01:07.461Z,31.4
2018-12-11T18:01:57.278Z,31.4
2018-12-11T18:02:46.461Z,31.4
2018-12-11T18:03:38.796Z,31.3
2018-12-11T18:04:27.989Z,31.3
2018-12-11T18:05:18.528Z,31.3
2018-12-11T18:23:56.457Z,30.9
2018-12-11T18:24:45.705Z,31.1
2018-12-11T18:25:36.892Z,31.1
2018-12-11T18:26:25.217Z,31.2
2018-12-11T18:27:16.373Z,31.3
2018-12-11T18:28:06.487Z,31.3
2018-12-11T18:28:56.594Z,31.4
2018-12-11T18:29:46.834Z,31.4
2018-12-11T18:30:36.294Z,31.5
2018-12-11T18:31:25.854Z,31.6
2018-12-11T18:32:16.682Z,31.6
2018-12-11T18:33:07.060Z,31.6
2018-12-11T18:33:56.906Z,31.7
2018-12-11T18:34:47.119Z,31.7
2018-12-11T18:35:37.304Z,31.8
2018-12-11T18:36:27.231Z,31.8
2018-12-11T18:37:17.299Z,31.8
2018-12-11T18:38:07.369Z,31.8
2018-12-11T18:38:56.990Z,31.8
2018-12-11T18:39:48.024Z,31.8
2018-12-11T18:40:37.847Z,31.8
2018-12-11T18:41:28.051Z,31.9
2018-12-11T18:42:16.571Z,31.9
2018-12-11T18:43:07.613Z,31.9
2018-12-11T18:43:57.290Z,31.9
2018-12-11T18:44:47.823Z,31.9
2018-12-11T18:45:37.908Z,32
2018-12-11T18:46:27.966Z,32
2018-12-11T18:47:17.798Z,31.9
2018-12-11T18:48:07.530Z,31.9
2018-12-11T18:48:58.211Z,31.9
2018-12-11T18:49:47.702Z,31.9
2018-12-11T18:50:38.206Z,31.9
2018-12-11T18:51:28.355Z,31.9
2018-12-11T18:52:18.425Z,31.9
2018-12-11T18:53:07.613Z,31.9
2018-12-11T18:53:58.480Z,31.9
2018-12-11T18:54:48.083Z,31.9
2018-12-11T18:55:37.582Z,31.9
2018-12-11T18:56:28.098Z,31.8
2018-12-11T18:57:18.427Z,31.8
2018-12-11T18:58:08.580Z,31.8
2018-12-11T18:58:58.095Z,31.8
2018-12-11T18:59:48.653Z,31.8
2018-12-11T19:00:38.735Z,31.7
2018-12-11T19:01:29.050Z,31.7
2018-12-11T19:02:19.052Z,31.7
2018-12-11T19:03:09.160Z,31.8
2018-12-11T19:03:59.392Z,31.8
2018-12-11T19:04:47.843Z,31.8
2018-12-11T19:05:39.500Z,31.8
2018-12-11T19:06:28.792Z,31.7
2018-12-11T19:07:19.115Z,31.6
2018-12-11T19:08:08.935Z,31.6
2018-12-11T19:08:59.039Z,31.6
2018-12-11T19:09:49.104Z,31.5
2018-12-11T19:10:38.900Z,31.5
2018-12-11T19:11:28.322Z,31.5
2018-12-11T19:12:19.312Z,31.4
2018-12-11T19:13:08.492Z,31.4
2018-12-11T19:13:59.114Z,31.4
2018-12-11T19:14:49.546Z,31.4
2018-12-11T19:15:39.406Z,31.4
2018-12-11T19:16:29.571Z,31.4
2018-12-11T19:17:20.389Z,31.4
2018-12-11T19:18:09.619Z,31.4
2018-12-11T19:18:59.426Z,31.5
2018-12-11T19:19:49.686Z,31.5
2018-12-11T19:20:40.370Z,31.4
2018-12-11T19:21:30.143Z,31.3
2018-12-11T19:22:20.738Z,31.3
2018-12-11T19:23:09.663Z,31.3
2018-12-11T19:23:59.743Z,31.3
2018-12-11T19:24:50.110Z,31.3
2018-12-11T19:25:39.836Z,31.2
2018-12-11T19:26:31.715Z,31.2
2018-12-11T19:27:20.223Z,31.1
2018-12-11T19:28:10.828Z,31.1
2018-12-11T19:29:00.610Z,31.1
2018-12-11T19:29:50.210Z,31
2018-12-11T19:30:40.545Z,31
2018-12-11T19:31:30.981Z,31.1
2018-12-11T19:32:20.623Z,31.3
2018-12-11T19:33:10.947Z,31.4
2018-12-11T19:34:00.980Z,31.4
2018-12-11T19:34:50.190Z,31.4
2018-12-11T19:35:43.512Z,31.5
2018-12-11T19:36:30.344Z,31.6
2018-12-11T19:37:20.365Z,31.6
2018-12-11T19:38:10.732Z,31.6
2018-12-11T19:39:00.479Z,31.6
2018-12-11T19:39:50.813Z,31.6
2018-12-11T19:40:51.270Z,31.6
2018-12-11T19:41:31.767Z,31.7
2018-12-11T19:42:21.967Z,31.8
2018-12-11T19:43:17.329Z,31.8
2018-12-11T19:44:01.927Z,31.8
2018-12-11T19:44:52.047Z,31.8
2018-12-11T19:45:42.419Z,31.8
2018-12-11T19:46:32.519Z,31.9
2018-12-11T19:47:21.679Z,31.9
2018-12-11T19:48:11.796Z,31.9
2018-12-11T19:49:02.064Z,31.9
2018-12-11T19:49:51.916Z,31.9
2018-12-11T19:50:42.098Z,31.9
2018-12-11T19:51:31.880Z,31.9
2018-12-11T19:52:21.459Z,31.8
2018-12-11T19:53:12.018Z,31.8
2018-12-11T19:54:01.507Z,31.9
2018-12-11T19:54:52.161Z,32
2018-12-11T19:55:42.795Z,32
2018-12-11T19:56:33.361Z,31.9
2018-12-11T19:57:22.910Z,31.9
2018-12-11T19:58:11.531Z,31.9
2018-12-11T19:59:02.447Z,31.9
2018-12-11T19:59:51.932Z,31.9
2018-12-11T20:00:42.845Z,31.8
2018-12-11T20:01:32.857Z,31.8
2018-12-11T20:02:22.672Z,31.8
2018-12-11T20:03:18.680Z,31.8
2018-12-11T20:04:03.299Z,31.9
2018-12-11T20:04:52.805Z,31.9
2018-12-11T20:05:42.870Z,32
2018-12-11T20:06:31.632Z,32
2018-12-11T20:07:22.961Z,32.1
2018-12-11T20:08:13.034Z,32.1
2018-12-11T20:09:03.195Z,32.1
2018-12-11T20:09:52.889Z,32.1
2018-12-11T20:10:43.257Z,32.1
2018-12-11T20:11:33.074Z,32.1
2018-12-11T20:12:23.417Z,32.1
2018-12-11T20:13:13.207Z,32.1
2018-12-11T20:14:03.581Z,32.1
2018-12-11T20:14:52.975Z,32.1
2018-12-11T20:15:44.481Z,32.1
2018-12-11T20:16:33.419Z,32.1
2018-12-11T20:17:23.966Z,32.2
2018-12-11T20:18:19.998Z,32.2
2018-12-11T20:19:04.603Z,32.3
2018-12-11T20:19:53.588Z,32.3
2018-12-11T20:20:43.704Z,32.3
2018-12-11T20:21:33.458Z,32.3
2018-12-11T20:22:23.468Z,32.3
2018-12-11T20:23:14.653Z,32.3
2018-12-11T20:24:10.350Z,32.3
2018-12-11T20:24:54.208Z,32.3
2018-12-11T20:25:44.535Z,32.3
2018-12-11T20:26:40.695Z,32.3
2018-12-11T20:27:23.538Z,32.3
2018-12-11T20:28:14.160Z,32.2
2018-12-11T20:29:04.236Z,32.1
2018-12-11T20:29:54.808Z,32.1
2018-12-11T20:30:45.135Z,32.1
2018-12-11T20:31:34.571Z,32.1
2018-12-11T20:32:24.219Z,32.1
2018-12-11T20:33:14.227Z,32
2018-12-11T20:34:04.613Z,32
2018-12-11T20:34:53.992Z,32
2018-12-11T20:35:44.210Z,32.1
2018-12-11T20:36:33.970Z,32.2
2018-12-11T20:37:24.547Z,32.2
2018-12-11T20:38:13.818Z,32.1
2018-12-11T20:39:03.397Z,32.1
2018-12-11T20:39:55.563Z,32.1
2018-12-11T20:40:45.956Z,32.1
2018-12-11T20:41:35.888Z,32.1
2018-12-11T20:42:25.366Z,32.2
2018-12-11T20:43:16.009Z,32.2
2018-12-11T20:44:05.237Z,32.2
2018-12-11T20:44:55.054Z,32.2
2018-12-11T20:45:45.918Z,32.1
2018-12-11T20:46:36.601Z,32.1
2018-12-11T20:47:25.726Z,32.1
2018-12-11T20:48:15.313Z,32
2018-12-11T20:49:07.676Z,32
2018-12-11T20:49:56.273Z,32
2018-12-11T20:50:45.994Z,32
2018-12-11T20:51:36.031Z,32
2018-12-11T20:52:25.328Z,32.1
2018-12-11T20:53:16.271Z,32.1
2018-12-11T20:54:06.355Z,32.1
2018-12-11T20:54:56.044Z,32
2018-12-11T20:55:47.155Z,31.9
2018-12-11T20:56:36.988Z,31.9
2018-12-11T20:57:26.590Z,31.9
2018-12-11T20:58:16.485Z,31.8
2018-12-11T20:59:06.635Z,31.8
2018-12-11T20:59:56.386Z,31.8
2018-12-11T21:00:46.650Z,31.8
2018-12-11T21:01:36.483Z,31.8
2018-12-11T21:02:27.087Z,31.8
2018-12-11T21:03:17.280Z,31.7
2018-12-11T21:04:07.202Z,31.7
2018-12-11T21:04:57.017Z,31.7
2018-12-11T21:05:46.720Z,31.6
2018-12-11T21:06:37.092Z,31.6
2018-12-11T21:07:26.890Z,31.6
2018-12-11T21:08:18.946Z,31.6
2018-12-11T21:09:07.363Z,31.5
2018-12-11T21:09:57.624Z,31.5
2018-12-11T21:10:48.160Z,31.5